sensor_id;sensor_type;location;lat;lon;timestamp;temperature;humidity
28069;DHT22;15382;47.578;8.086;2023-12-20T00:08:52;4.50;99.90
28069;DHT22;15382;47.578;8.086;2023-12-20T00:18:52;4.60;99.90
28069;DHT22;15382;47.578;8.086;2023-12-20T00:28:53;4.60;99.90
28069;DHT22;15382;47.578;8.086;2023-12-20T00:38:54;4.60;99.90
28069;DHT22;15382;47.578;8.086;2023-12-20T00:48:54;4.70;99.90
28069;DHT22;15382;47.578;8.086;2023-12-20T00:58:55;4.80;99.90
28069;DHT22;15382;47.578;8.086;2023-12-20T01:08:56;4.90;99.90
28069;DHT22;15382;47.578;8.086;2023-12-20T01:18:56;4.90;99.90
28069;DHT22;15382;47.578;8.086;2023-12-20T01:28:57;4.90;99.90
28069;DHT22;15382;47.578;8.086;2023-12-20T01:38:58;5.00;99.90
28069;DHT22;15382;47.578;8.086;2023-12-20T01:48:58;5.10;99.90
28069;DHT22;15382;47.578;8.086;2023-12-20T01:59:00;5.10;99.90
28069;DHT22;15382;47.578;8.086;2023-12-20T02:09:01;5.10;99.90
28069;DHT22;15382;47.578;8.086;2023-12-20T02:19:03;5.00;99.90
28069;DHT22;15382;47.578;8.086;2023-12-20T02:29:04;4.90;99.90
28069;DHT22;15382;47.578;8.086;2023-12-20T02:39:05;4.70;99.90
28069;DHT22;15382;47.578;8.086;2023-12-20T02:49:06;4.70;99.90
28069;DHT22;15382;47.578;8.086;2023-12-20T02:59:06;4.60;99.90
28069;DHT22;15382;47.578;8.086;2023-12-20T03:09:08;4.60;99.90
28069;DHT22;15382;47.578;8.086;2023-12-20T03:19:09;4.50;99.90
28069;DHT22;15382;47.578;8.086;2023-12-20T03:29:10;4.50;99.90
28069;DHT22;15382;47.578;8.086;2023-12-20T03:39:10;4.50;99.90
28069;DHT22;15382;47.578;8.086;2023-12-20T03:49:11;4.50;99.90
28069;DHT22;15382;47.578;8.086;2023-12-20T03:59:12;4.50;99.90
28069;DHT22;15382;47.578;8.086;2023-12-20T04:09:12;4.50;99.90
28069;DHT22;15382;47.578;8.086;2023-12-20T04:19:13;4.50;99.90
28069;DHT22;15382;47.578;8.086;2023-12-20T04:29:13;4.50;99.90
28069;DHT22;15382;47.578;8.086;2023-12-20T04:39:14;4.50;99.90
28069;DHT22;15382;47.578;8.086;2023-12-20T04:49:15;4.60;99.90
28069;DHT22;15382;47.578;8.086;2023-12-20T04:59:16;4.70;99.90
28069;DHT22;15382;47.578;8.086;2023-12-20T05:09:16;4.80;99.90
28069;DHT22;15382;47.578;8.086;2023-12-20T05:19:18;4.90;99.90
28069;DHT22;15382;47.578;8.086;2023-12-20T05:29:18;5.00;99.90
28069;DHT22;15382;47.578;8.086;2023-12-20T05:39:19;5.10;99.90
28069;DHT22;15382;47.578;8.086;2023-12-20T05:49:19;5.10;99.90
28069;DHT22;15382;47.578;8.086;2023-12-20T05:59:20;5.10;99.90
28069;DHT22;15382;47.578;8.086;2023-12-20T06:09:21;5.20;99.90
28069;DHT22;15382;47.578;8.086;2023-12-20T06:19:21;5.30;99.90
28069;DHT22;15382;47.578;8.086;2023-12-20T06:29:22;5.40;99.90
28069;DHT22;15382;47.578;8.086;2023-12-20T06:39:23;5.50;99.90
28069;DHT22;15382;47.578;8.086;2023-12-20T06:49:23;5.60;99.90
28069;DHT22;15382;47.578;8.086;2023-12-20T06:59:24;5.60;99.90
28069;DHT22;15382;47.578;8.086;2023-12-20T07:09:25;5.50;99.90
28069;DHT22;15382;47.578;8.086;2023-12-20T07:19:26;5.50;99.90
28069;DHT22;15382;47.578;8.086;2023-12-20T07:29:26;5.40;99.90
28069;DHT22;15382;47.578;8.086;2023-12-20T07:39:27;5.40;99.90
28069;DHT22;15382;47.578;8.086;2023-12-20T07:49:27;5.40;99.90
28069;DHT22;15382;47.578;8.086;2023-12-20T07:59:28;5.50;99.90
28069;DHT22;15382;47.578;8.086;2023-12-20T08:09:29;5.40;99.90
28069;DHT22;15382;47.578;8.086;2023-12-20T08:19:30;5.50;99.90
28069;DHT22;15382;47.578;8.086;2023-12-20T08:29:30;5.60;99.90
28069;DHT22;15382;47.578;8.086;2023-12-20T08:39:31;5.60;99.90
28069;DHT22;15382;47.578;8.086;2023-12-20T08:49:34;5.60;99.90
28069;DHT22;15382;47.578;8.086;2023-12-20T08:59:34;5.70;99.90
28069;DHT22;15382;47.578;8.086;2023-12-20T09:09:35;5.70;99.90
28069;DHT22;15382;47.578;8.086;2023-12-20T09:19:36;5.70;99.90
28069;DHT22;15382;47.578;8.086;2023-12-20T09:29:36;5.70;99.90
28069;DHT22;15382;47.578;8.086;2023-12-20T09:39:37;5.80;99.90
28069;DHT22;15382;47.578;8.086;2023-12-20T09:49:37;5.80;99.90
28069;DHT22;15382;47.578;8.086;2023-12-20T09:59:38;5.90;99.90
28069;DHT22;15382;47.578;8.086;2023-12-20T10:09:40;5.90;99.90
28069;DHT22;15382;47.578;8.086;2023-12-20T10:19:42;6.00;99.90
28069;DHT22;15382;47.578;8.086;2023-12-20T10:29:43;5.90;99.90
28069;DHT22;15382;47.578;8.086;2023-12-20T10:39:43;5.90;99.90
28069;DHT22;15382;47.578;8.086;2023-12-20T10:49:44;5.90;99.90
28069;DHT22;15382;47.578;8.086;2023-12-20T10:59:45;6.10;99.90
28069;DHT22;15382;47.578;8.086;2023-12-20T11:09:54;6.40;99.90
28069;DHT22;15382;47.578;8.086;2023-12-20T11:29:58;8.40;99.90
28069;DHT22;15382;47.578;8.086;2023-12-20T11:40:05;8.70;99.90
28069;DHT22;15382;47.578;8.086;2023-12-20T11:50:07;8.50;99.90
28069;DHT22;15382;47.578;8.086;2023-12-20T12:00:08;8.90;99.90
28069;DHT22;15382;47.578;8.086;2023-12-20T12:10:14;8.60;99.90
28069;DHT22;15382;47.578;8.086;2023-12-20T12:20:15;8.90;99.90
28069;DHT22;15382;47.578;8.086;2023-12-20T12:30:20;8.30;99.90
28069;DHT22;15382;47.578;8.086;2023-12-20T12:40:20;7.80;99.90
28069;DHT22;15382;47.578;8.086;2023-12-20T12:50:21;8.30;99.90
28069;DHT22;15382;47.578;8.086;2023-12-20T13:00:22;8.10;99.90
28069;DHT22;15382;47.578;8.086;2023-12-20T13:10:23;6.70;99.90
28069;DHT22;15382;47.578;8.086;2023-12-20T13:20:24;6.40;99.90
28069;DHT22;15382;47.578;8.086;2023-12-20T13:30:24;6.10;99.90
28069;DHT22;15382;47.578;8.086;2023-12-20T13:40:25;5.90;99.90
28069;DHT22;15382;47.578;8.086;2023-12-20T13:50:26;5.80;99.90
28069;DHT22;15382;47.578;8.086;2023-12-20T14:00:27;5.80;99.90
28069;DHT22;15382;47.578;8.086;2023-12-20T14:10:28;5.80;99.90
28069;DHT22;15382;47.578;8.086;2023-12-20T14:20:28;5.60;99.90
28069;DHT22;15382;47.578;8.086;2023-12-20T14:30:29;5.50;99.90
28069;DHT22;15382;47.578;8.086;2023-12-20T14:40:30;5.40;99.90
28069;DHT22;15382;47.578;8.086;2023-12-20T14:50:31;5.40;99.90
28069;DHT22;15382;47.578;8.086;2023-12-20T15:00:31;5.40;99.90
28069;DHT22;15382;47.578;8.086;2023-12-20T15:10:32;5.30;99.90
28069;DHT22;15382;47.578;8.086;2023-12-20T15:20:33;5.30;99.90
28069;DHT22;15382;47.578;8.086;2023-12-20T15:30:34;5.40;99.90
28069;DHT22;15382;47.578;8.086;2023-12-20T15:40:36;5.20;99.90
28069;DHT22;15382;47.578;8.086;2023-12-20T15:50:37;5.00;99.90
28069;DHT22;15382;47.578;8.086;2023-12-20T16:00:37;4.90;99.90
28069;DHT22;15382;47.578;8.086;2023-12-20T16:10:38;4.70;99.90
28069;DHT22;15382;47.578;8.086;2023-12-20T16:20:39;4.60;99.90
28069;DHT22;15382;47.578;8.086;2023-12-20T16:30:40;4.50;99.90
28069;DHT22;15382;47.578;8.086;2023-12-20T16:40:40;4.30;99.90
28069;DHT22;15382;47.578;8.086;2023-12-20T16:50:42;4.10;99.90
28069;DHT22;15382;47.578;8.086;2023-12-20T17:00:43;3.90;99.90
28069;DHT22;15382;47.578;8.086;2023-12-20T17:10:43;4.00;99.90
28069;DHT22;15382;47.578;8.086;2023-12-20T17:20:44;3.80;99.90
28069;DHT22;15382;47.578;8.086;2023-12-20T17:30:45;3.80;99.90
28069;DHT22;15382;47.578;8.086;2023-12-20T17:40:46;3.70;99.90
28069;DHT22;15382;47.578;8.086;2023-12-20T17:50:47;3.60;99.90
28069;DHT22;15382;47.578;8.086;2023-12-20T18:00:48;3.60;99.90
28069;DHT22;15382;47.578;8.086;2023-12-20T18:10:49;3.50;99.90
28069;DHT22;15382;47.578;8.086;2023-12-20T18:20:49;3.60;99.90
28069;DHT22;15382;47.578;8.086;2023-12-20T18:30:50;3.30;99.90
28069;DHT22;15382;47.578;8.086;2023-12-20T18:40:51;3.50;99.90
28069;DHT22;15382;47.578;8.086;2023-12-20T18:50:51;3.60;99.90
28069;DHT22;15382;47.578;8.086;2023-12-20T19:00:52;3.70;99.90
28069;DHT22;15382;47.578;8.086;2023-12-20T19:10:53;3.70;99.90
28069;DHT22;15382;47.578;8.086;2023-12-20T19:20:56;3.80;99.90
28069;DHT22;15382;47.578;8.086;2023-12-20T19:30:56;3.80;99.90
28069;DHT22;15382;47.578;8.086;2023-12-20T19:41:01;3.80;99.90
28069;DHT22;15382;47.578;8.086;2023-12-20T19:51:02;3.90;99.90
28069;DHT22;15382;47.578;8.086;2023-12-20T20:01:03;3.90;99.90
28069;DHT22;15382;47.578;8.086;2023-12-20T20:11:04;3.90;99.90
28069;DHT22;15382;47.578;8.086;2023-12-20T20:21:04;4.00;99.90
28069;DHT22;15382;47.578;8.086;2023-12-20T20:31:05;3.90;99.90
28069;DHT22;15382;47.578;8.086;2023-12-20T20:41:06;3.90;99.90
28069;DHT22;15382;47.578;8.086;2023-12-20T20:51:06;3.80;99.90
28069;DHT22;15382;47.578;8.086;2023-12-20T21:01:07;3.70;99.90
28069;DHT22;15382;47.578;8.086;2023-12-20T21:11:08;3.90;99.90
28069;DHT22;15382;47.578;8.086;2023-12-20T21:21:08;3.80;99.90
28069;DHT22;15382;47.578;8.086;2023-12-20T21:31:09;3.90;99.90
28069;DHT22;15382;47.578;8.086;2023-12-20T21:41:09;3.90;99.90
28069;DHT22;15382;47.578;8.086;2023-12-20T21:51:10;3.90;99.90
28069;DHT22;15382;47.578;8.086;2023-12-20T22:01:11;3.90;99.90
28069;DHT22;15382;47.578;8.086;2023-12-20T22:11:12;3.90;99.90
28069;DHT22;15382;47.578;8.086;2023-12-20T22:21:13;3.90;99.90
28069;DHT22;15382;47.578;8.086;2023-12-20T22:31:13;3.80;99.90
28069;DHT22;15382;47.578;8.086;2023-12-20T22:41:14;4.00;99.90
28069;DHT22;15382;47.578;8.086;2023-12-20T22:51:15;4.10;99.90
28069;DHT22;15382;47.578;8.086;2023-12-20T23:01:16;4.10;99.90
28069;DHT22;15382;47.578;8.086;2023-12-20T23:11:17;4.10;99.90
28069;DHT22;15382;47.578;8.086;2023-12-20T23:21:17;4.10;99.90
28069;DHT22;15382;47.578;8.086;2023-12-20T23:31:22;4.00;99.90
28069;DHT22;15382;47.578;8.086;2023-12-20T23:41:23;4.00;99.90
28069;DHT22;15382;47.578;8.086;2023-12-20T23:51:24;4.00;99.90
